Time;durP1;ratioP1;P1;durP2;ratioP2;P2;SDS_P1;SDS_P2;PMS_P1;PMS_P2;Temp;Humidity;BMP_temperature;BMP_pressure;BME280_temperature;BME280_humidity;BME280_pressure;Samples;Min_cycle;Max_cycle;Signal;HPM_P1;HPM_P2
2023/05/16 00:00:24;;;;;;;10.18;6.72;;;;;;;;;;5007078;28;20033;-70
2023/05/16 00:02:50;;;;;;;9.85;6.32;;;;;;;;;;5008807;28;20543;-69
2023/05/16 00:05:15;;;;;;;9.55;6.60;;;;;;;;;;5010128;28;20029;-69
2023/05/16 00:07:43;;;;;;;10.30;6.80;;;;;;;;;;5009663;28;20088;-69
2023/05/16 00:10:09;;;;;;;9.55;6.68;;;;;;;;;;5003752;28;20109;-69
2023/05/16 00:12:35;;;;;;;11.07;6.85;;;;;;;;;;5006628;28;20113;-70
2023/05/16 00:15:00;;;;;;;10.73;6.88;;;;;;;;;;5005958;28;20027;-70
2023/05/16 00:17:27;;;;;;;12.03;6.90;;;;;;;;;;4999322;28;20076;-68
2023/05/16 00:19:57;;;;;;;11.70;6.25;;;;;;;;;;5008855;28;20028;-70
2023/05/16 00:22:22;;;;;;;10.77;6.55;;;;;;;;;;5007956;28;20034;-70
2023/05/16 00:24:47;;;;;;;10.60;7.07;;;;;;;;;;5006829;28;20108;-68
2023/05/16 00:27:12;;;;;;;9.27;6.55;;;;;;;;;;5005105;28;20041;-70
2023/05/16 00:29:37;;;;;;;10.57;7.30;;;;;;;;;;5006969;28;20378;-70
2023/05/16 00:32:03;;;;;;;11.70;7.25;;;;;;;;;;5002593;28;20069;-70
2023/05/16 00:34:28;;;;;;;10.13;6.95;;;;;;;;;;5010662;28;20096;-68
2023/05/16 00:36:53;;;;;;;10.63;6.78;;;;;;;;;;5011511;28;20026;-69
2023/05/16 00:39:18;;;;;;;11.90;6.93;;;;;;;;;;5005942;28;20029;-70
2023/05/16 00:41:44;;;;;;;12.20;7.53;;;;;;;;;;5010253;28;20516;-69
2023/05/16 00:44:10;;;;;;;12.27;6.68;;;;;;;;;;5013076;28;20057;-69
2023/05/16 00:46:35;;;;;;;11.67;7.23;;;;;;;;;;5010433;28;20030;-68
2023/05/16 00:49:00;;;;;;;11.63;7.93;;;;;;;;;;5012214;28;20530;-69
2023/05/16 00:51:25;;;;;;;10.03;6.93;;;;;;;;;;5009474;28;20092;-69
2023/05/16 00:53:50;;;;;;;11.57;7.43;;;;;;;;;;5006585;28;20034;-68
2023/05/16 00:56:16;;;;;;;9.95;7.18;;;;;;;;;;5010569;28;20164;-69
2023/05/16 00:58:41;;;;;;;11.00;7.40;;;;;;;;;;5010560;28;20677;-69
2023/05/16 01:01:07;;;;;;;11.57;6.83;;;;;;;;;;5010512;28;20259;-69
2023/05/16 01:03:33;;;;;;;10.85;7.68;;;;;;;;;;5006572;28;20018;-69
2023/05/16 01:05:58;;;;;;;13.80;7.80;;;;;;;;;;5009506;28;20506;-69
2023/05/16 01:08:23;;;;;;;13.10;7.83;;;;;;;;;;5010437;28;20510;-69
2023/05/16 01:10:56;;;;;;;13.60;8.07;;;;;;;;;;5006464;28;20024;-68
2023/05/16 01:13:26;;;;;;;10.60;7.13;;;;;;;;;;5008819;28;20469;-68
2023/05/16 01:16:15;;;;;;;12.52;7.70;;;;;;;;;;5010205;28;20033;-68
2023/05/16 01:18:42;;;;;;;12.15;8.02;;;;;;;;;;5009570;28;20026;-67
2023/05/16 01:21:12;;;;;;;10.90;7.15;;;;;;;;;;5006728;28;20022;-69
2023/05/16 01:23:50;;;;;;;12.35;7.78;;;;;;;;;;5013173;28;20371;-68
2023/05/16 01:26:25;;;;;;;12.40;7.28;;;;;;;;;;5009480;28;20013;-69
2023/05/16 01:28:51;;;;;;;11.25;7.47;;;;;;;;;;5008681;28;20044;-69
2023/05/16 01:31:16;;;;;;;13.02;7.97;;;;;;;;;;5006700;28;20026;-68
2023/05/16 01:33:42;;;;;;;13.37;8.57;;;;;;;;;;5008134;28;20029;-68
2023/05/16 01:36:13;;;;;;;10.95;7.05;;;;;;;;;;5003162;28;20045;-68
2023/05/16 01:38:40;;;;;;;11.63;6.93;;;;;;;;;;5010049;28;20029;-67
2023/05/16 01:41:20;;;;;;;14.32;8.02;;;;;;;;;;5009428;28;20018;-69
2023/05/16 01:43:48;;;;;;;12.30;7.43;;;;;;;;;;5008829;28;20030;-69
2023/05/16 01:46:15;;;;;;;11.73;7.95;;;;;;;;;;5010980;28;20496;-69
2023/05/16 01:48:48;;;;;;;10.23;7.07;;;;;;;;;;5011244;28;20517;-69
2023/05/16 01:51:13;;;;;;;11.07;7.95;;;;;;;;;;5004019;28;20022;-66
2023/05/16 01:53:38;;;;;;;11.23;7.50;;;;;;;;;;5010288;28;20024;-68
2023/05/16 01:56:07;;;;;;;11.27;7.43;;;;;;;;;;5009371;28;20075;-69
2023/05/16 01:58:33;;;;;;;12.07;8.30;;;;;;;;;;5007263;28;20952;-68
2023/05/16 02:01:00;;;;;;;11.07;7.45;;;;;;;;;;5006431;28;20026;-66
2023/05/16 02:03:25;;;;;;;12.00;7.50;;;;;;;;;;5009160;28;20030;-68
2023/05/16 02:05:51;;;;;;;12.00;7.50;;;;;;;;;;5009990;28;20036;-68
2023/05/16 02:08:16;;;;;;;13.05;7.50;;;;;;;;;;5008714;28;20084;-68
2023/05/16 02:10:41;;;;;;;12.37;8.03;;;;;;;;;;5009504;28;20116;-68
2023/05/16 02:13:06;;;;;;;12.73;8.13;;;;;;;;;;5009543;28;20022;-69
2023/05/16 02:15:31;;;;;;;11.80;8.00;;;;;;;;;;5010891;28;20072;-69
2023/05/16 02:17:57;;;;;;;12.07;8.03;;;;;;;;;;5010154;28;20481;-66
2023/05/16 02:20:22;;;;;;;13.40;8.43;;;;;;;;;;5008336;28;20465;-68
2023/05/16 02:22:48;;;;;;;11.23;7.40;;;;;;;;;;5009789;28;20018;-68
2023/05/16 02:25:14;;;;;;;12.63;7.63;;;;;;;;;;5008350;28;20074;-69
2023/05/16 02:27:40;;;;;;;12.95;8.38;;;;;;;;;;5010565;28;20112;-68
2023/05/16 02:30:05;;;;;;;12.43;7.90;;;;;;;;;;5011040;28;20053;-70
2023/05/16 02:32:31;;;;;;;12.35;8.10;;;;;;;;;;5005930;28;20056;-68
2023/05/16 02:34:56;;;;;;;13.20;7.88;;;;;;;;;;5007099;28;20025;-68
2023/05/16 02:37:21;;;;;;;14.48;8.32;;;;;;;;;;5007309;28;20026;-67
2023/05/16 02:39:46;;;;;;;14.10;8.47;;;;;;;;;;5008617;28;20092;-69
2023/05/16 02:42:12;;;;;;;11.00;7.70;;;;;;;;;;5009780;28;20053;-68
2023/05/16 02:44:37;;;;;;;13.23;8.32;;;;;;;;;;5006825;28;20080;-69
2023/05/16 02:47:02;;;;;;;14.15;8.70;;;;;;;;;;5008555;28;20355;-69
2023/05/16 02:49:27;;;;;;;13.20;9.20;;;;;;;;;;5006505;28;20026;-67
2023/05/16 02:51:53;;;;;;;12.30;8.57;;;;;;;;;;5007418;28;20429;-69
2023/05/16 02:54:18;;;;;;;12.48;8.60;;;;;;;;;;5010260;28;20493;-69
2023/05/16 02:56:43;;;;;;;15.32;8.10;;;;;;;;;;5007933;28;20508;-70
2023/05/16 02:59:09;;;;;;;12.35;8.25;;;;;;;;;;5008484;28;20033;-69
2023/05/16 03:01:34;;;;;;;12.50;8.85;;;;;;;;;;5008541;28;20483;-69
2023/05/16 03:03:59;;;;;;;13.15;9.57;;;;;;;;;;5008180;28;20025;-69
2023/05/16 03:06:25;;;;;;;13.67;9.67;;;;;;;;;;5007534;28;20030;-68
2023/05/16 03:08:50;;;;;;;13.80;9.10;;;;;;;;;;5009156;28;20028;-68
2023/05/16 03:11:21;;;;;;;16.47;9.80;;;;;;;;;;5007009;28;20014;-70
2023/05/16 03:13:46;;;;;;;15.38;10.20;;;;;;;;;;5008966;28;20441;-69
2023/05/16 03:16:11;;;;;;;13.87;9.00;;;;;;;;;;5007297;28;20037;-69
2023/05/16 03:18:36;;;;;;;13.50;9.20;;;;;;;;;;5003962;28;20028;-69
2023/05/16 03:21:02;;;;;;;13.67;9.70;;;;;;;;;;5005669;28;20092;-69
2023/05/16 03:23:27;;;;;;;14.33;9.53;;;;;;;;;;5008097;28;20054;-69
2023/05/16 03:25:52;;;;;;;12.32;8.63;;;;;;;;;;5006122;28;20448;-69
2023/05/16 03:28:17;;;;;;;13.73;8.97;;;;;;;;;;5008441;28;20026;-69
2023/05/16 03:30:42;;;;;;;15.00;10.00;;;;;;;;;;4997856;28;20105;-70
2023/05/16 03:33:08;;;;;;;13.73;8.75;;;;;;;;;;5009322;28;20037;-69
2023/05/16 03:35:33;;;;;;;13.48;9.15;;;;;;;;;;5006730;28;20117;-69
2023/05/16 03:37:58;;;;;;;13.57;9.38;;;;;;;;;;5009713;28;20489;-69
2023/05/16 03:40:24;;;;;;;14.00;8.97;;;;;;;;;;5008270;28;20485;-69
2023/05/16 03:42:49;;;;;;;14.82;9.27;;;;;;;;;;5007301;28;20049;-68
2023/05/16 03:45:14;;;;;;;14.85;9.48;;;;;;;;;;5007279;28;20029;-68
2023/05/16 03:47:39;;;;;;;15.30;9.90;;;;;;;;;;5002173;28;20405;-70
2023/05/16 03:50:05;;;;;;;14.03;9.10;;;;;;;;;;5000808;28;20021;-67
2023/05/16 03:52:30;;;;;;;15.05;10.18;;;;;;;;;;5005539;28;20172;-69
2023/05/16 03:54:56;;;;;;;14.97;9.13;;;;;;;;;;5010897;28;20018;-69
2023/05/16 03:57:21;;;;;;;13.07;9.40;;;;;;;;;;5006320;28;20730;-68
2023/05/16 03:59:46;;;;;;;12.90;8.80;;;;;;;;;;5005170;28;20068;-68
2023/05/16 04:02:11;;;;;;;14.07;9.48;;;;;;;;;;5008443;28;20053;-69
2023/05/16 04:04:36;;;;;;;13.23;8.88;;;;;;;;;;5011682;28;20053;-68
2023/05/16 04:07:02;;;;;;;13.93;9.10;;;;;;;;;;5009993;28;20026;-69
2023/05/16 04:09:27;;;;;;;13.50;8.63;;;;;;;;;;5014830;28;20133;-67
2023/05/16 04:11:54;;;;;;;12.67;9.63;;;;;;;;;;5012079;28;20449;-70
2023/05/16 04:14:20;;;;;;;13.23;9.00;;;;;;;;;;5012694;28;20555;-69
2023/05/16 04:16:45;;;;;;;12.82;8.50;;;;;;;;;;5012338;28;20110;-68
2023/05/16 04:19:10;;;;;;;14.23;9.23;;;;;;;;;;5013173;28;20030;-67
2023/05/16 04:21:35;;;;;;;12.30;9.18;;;;;;;;;;5002532;28;20025;-74
2023/05/16 04:24:00;;;;;;;14.07;9.50;;;;;;;;;;5009516;28;20099;-72
2023/05/16 04:26:26;;;;;;;13.37;9.53;;;;;;;;;;5008882;28;20032;-72
2023/05/16 04:28:51;;;;;;;14.10;9.85;;;;;;;;;;5011208;28;20527;-72
2023/05/16 04:31:17;;;;;;;12.50;9.45;;;;;;;;;;5010512;28;20028;-72
2023/05/16 04:33:42;;;;;;;15.23;9.87;;;;;;;;;;5010040;28;20033;-72
2023/05/16 04:36:07;;;;;;;15.20;10.23;;;;;;;;;;5013971;28;20452;-73
2023/05/16 04:38:32;;;;;;;16.20;10.13;;;;;;;;;;5012220;28;20037;-72
2023/05/16 04:40:57;;;;;;;13.93;9.77;;;;;;;;;;5009591;28;20762;-73
2023/05/16 04:43:23;;;;;;;13.60;9.73;;;;;;;;;;5010046;28;20137;-75
2023/05/16 04:45:48;;;;;;;16.03;9.63;;;;;;;;;;5010537;28;20101;-74
2023/05/16 04:48:14;;;;;;;17.80;9.87;;;;;;;;;;5010712;28;20032;-72
2023/05/16 04:50:39;;;;;;;16.30;9.95;;;;;;;;;;5005266;28;20084;-74
2023/05/16 04:53:04;;;;;;;14.73;10.07;;;;;;;;;;5006114;28;20053;-72
2023/05/16 04:55:30;;;;;;;15.23;10.30;;;;;;;;;;5001573;28;20109;-73
2023/05/16 04:57:55;;;;;;;15.73;9.38;;;;;;;;;;5002391;28;20033;-73
2023/05/16 05:00:20;;;;;;;15.95;9.88;;;;;;;;;;5009011;28;20030;-73
2023/05/16 05:02:45;;;;;;;14.10;9.87;;;;;;;;;;5004410;28;20147;-71
2023/05/16 05:05:10;;;;;;;18.83;10.05;;;;;;;;;;5009265;28;20452;-73
2023/05/16 05:07:36;;;;;;;13.80;9.60;;;;;;;;;;5008872;28;20080;-72
2023/05/16 05:10:01;;;;;;;14.88;9.80;;;;;;;;;;5005350;28;20030;-75
2023/05/16 05:12:26;;;;;;;14.80;9.97;;;;;;;;;;5006311;28;20042;-71
2023/05/16 05:14:52;;;;;;;15.95;10.15;;;;;;;;;;5009440;28;20689;-72
2023/05/16 05:17:17;;;;;;;16.52;10.13;;;;;;;;;;5006881;28;20121;-73
2023/05/16 05:19:42;;;;;;;14.60;9.87;;;;;;;;;;5009632;28;20021;-72
2023/05/16 05:22:07;;;;;;;14.90;10.65;;;;;;;;;;5009223;28;20742;-72
2023/05/16 05:24:32;;;;;;;16.83;10.93;;;;;;;;;;5010318;28;20014;-72
2023/05/16 05:26:58;;;;;;;16.00;10.60;;;;;;;;;;5009789;28;20061;-71
2023/05/16 05:29:23;;;;;;;18.00;11.03;;;;;;;;;;5011183;28;20481;-73
2023/05/16 05:31:48;;;;;;;19.02;11.02;;;;;;;;;;5012109;28;20018;-71
2023/05/16 05:34:13;;;;;;;17.50;10.90;;;;;;;;;;5013052;28;20041;-73
2023/05/16 05:36:38;;;;;;;17.43;10.43;;;;;;;;;;5012164;28;20050;-75
2023/05/16 05:39:04;;;;;;;16.50;11.43;;;;;;;;;;5013223;28;20022;-72
2023/05/16 05:41:29;;;;;;;16.88;11.85;;;;;;;;;;5011202;28;20460;-72
2023/05/16 05:43:54;;;;;;;18.43;11.13;;;;;;;;;;5012646;28;20064;-71
2023/05/16 05:46:19;;;;;;;17.43;12.00;;;;;;;;;;5012616;28;20472;-72
2023/05/16 05:48:45;;;;;;;16.50;11.97;;;;;;;;;;5008322;28;20037;-71
2023/05/16 05:51:10;;;;;;;20.63;12.83;;;;;;;;;;5011044;28;20026;-72
2023/05/16 05:53:35;;;;;;;18.00;12.00;;;;;;;;;;5011145;28;20029;-69
2023/05/16 05:56:00;;;;;;;20.10;13.07;;;;;;;;;;5011845;28;20084;-69
2023/05/16 05:58:25;;;;;;;20.17;13.30;;;;;;;;;;5010433;28;20029;-69
2023/05/16 06:00:50;;;;;;;17.92;12.50;;;;;;;;;;5011205;28;20054;-69
2023/05/16 06:03:15;;;;;;;20.60;13.88;;;;;;;;;;5012257;28;20014;-69
2023/05/16 06:05:41;;;;;;;21.17;14.10;;;;;;;;;;5012516;28;20018;-70
2023/05/16 06:08:06;;;;;;;19.83;13.73;;;;;;;;;;5012564;28;20026;-69
2023/05/16 06:10:31;;;;;;;21.07;14.20;;;;;;;;;;5010244;28;20026;-69
2023/05/16 06:12:56;;;;;;;19.95;13.43;;;;;;;;;;5010887;28;20064;-70
2023/05/16 06:15:21;;;;;;;22.97;14.07;;;;;;;;;;5010602;28;20029;-69
2023/05/16 06:17:46;;;;;;;22.17;14.27;;;;;;;;;;5009267;28;20021;-69
2023/05/16 06:20:12;;;;;;;23.03;14.37;;;;;;;;;;5006544;28;20453;-69
2023/05/16 06:22:37;;;;;;;18.97;13.73;;;;;;;;;;5011535;28;20025;-69
2023/05/16 06:25:02;;;;;;;23.05;14.95;;;;;;;;;;5010024;28;20458;-69
2023/05/16 06:27:27;;;;;;;19.20;12.93;;;;;;;;;;5012063;28;20363;-69
2023/05/16 06:29:52;;;;;;;23.73;14.37;;;;;;;;;;5007573;28;20018;-69
2023/05/16 06:32:18;;;;;;;21.50;14.80;;;;;;;;;;5008844;28;20052;-68
2023/05/16 06:34:43;;;;;;;22.00;14.80;;;;;;;;;;4996176;28;20465;-71
2023/05/16 06:37:08;;;;;;;26.43;15.10;;;;;;;;;;5009715;28;20037;-67
2023/05/16 06:39:33;;;;;;;26.55;15.90;;;;;;;;;;5002468;28;20019;-68
2023/05/16 06:41:58;;;;;;;26.83;16.60;;;;;;;;;;4998543;28;20132;-69
2023/05/16 06:44:23;;;;;;;26.20;16.65;;;;;;;;;;5011027;28;20021;-69
2023/05/16 06:46:48;;;;;;;26.25;16.63;;;;;;;;;;5012290;28;20038;-69
2023/05/16 06:49:14;;;;;;;29.45;19.13;;;;;;;;;;5014922;28;20030;-69
2023/05/16 06:51:39;;;;;;;31.60;19.40;;;;;;;;;;5011643;28;22169;-67
2023/05/16 06:54:04;;;;;;;29.43;17.80;;;;;;;;;;5019661;28;20036;-67
2023/05/16 06:56:30;;;;;;;30.73;18.77;;;;;;;;;;5016710;28;20523;-68
2023/05/16 06:58:55;;;;;;;28.83;17.90;;;;;;;;;;5010320;28;20029;-68
2023/05/16 07:01:20;;;;;;;31.67;18.33;;;;;;;;;;5011566;28;20022;-66
2023/05/16 07:03:45;;;;;;;30.95;17.60;;;;;;;;;;5013333;28;20455;-67
2023/05/16 07:06:11;;;;;;;29.83;17.37;;;;;;;;;;5006096;28;20528;-68
2023/05/16 07:08:36;;;;;;;30.50;18.70;;;;;;;;;;5005522;28;20029;-68
2023/05/16 07:11:01;;;;;;;26.77;17.57;;;;;;;;;;5010020;28;20100;-68
2023/05/16 07:13:26;;;;;;;28.45;17.13;;;;;;;;;;5009699;28;20030;-69
2023/05/16 07:15:52;;;;;;;29.50;17.80;;;;;;;;;;5008822;28;20679;-68
2023/05/16 07:18:18;;;;;;;27.35;17.42;;;;;;;;;;5010376;28;20110;-68
2023/05/16 07:20:43;;;;;;;28.92;16.55;;;;;;;;;;5008913;28;20108;-68
2023/05/16 07:23:09;;;;;;;22.30;14.17;;;;;;;;;;5010370;28;20038;-68
2023/05/16 07:25:34;;;;;;;22.88;13.85;;;;;;;;;;5009532;28;20485;-68
2023/05/16 07:27:59;;;;;;;20.20;13.13;;;;;;;;;;5010969;28;20021;-67
2023/05/16 07:30:24;;;;;;;22.13;12.63;;;;;;;;;;5010624;28;20029;-67
2023/05/16 07:32:50;;;;;;;20.95;12.73;;;;;;;;;;5011040;28;20025;-68
2023/05/16 07:35:15;;;;;;;18.40;12.07;;;;;;;;;;5010595;28;20144;-69
2023/05/16 07:37:42;;;;;;;21.58;12.43;;;;;;;;;;5008987;28;20037;-69
2023/05/16 07:40:07;;;;;;;18.45;11.90;;;;;;;;;;5010421;28;20029;-68
2023/05/16 07:42:33;;;;;;;17.83;11.13;;;;;;;;;;5008679;28;20037;-68
2023/05/16 07:44:58;;;;;;;19.48;11.25;;;;;;;;;;5010267;28;20113;-70
2023/05/16 07:47:23;;;;;;;17.93;10.17;;;;;;;;;;5010008;28;20477;-69
2023/05/16 07:49:48;;;;;;;17.38;11.30;;;;;;;;;;5001862;28;20081;-70
2023/05/16 07:52:13;;;;;;;16.77;10.10;;;;;;;;;;5010088;28;20029;-70
2023/05/16 07:54:38;;;;;;;18.55;11.77;;;;;;;;;;5010090;28;20038;-65
2023/05/16 07:57:04;;;;;;;16.60;9.90;;;;;;;;;;5009817;28;20034;-67
2023/05/16 07:59:29;;;;;;;18.10;10.55;;;;;;;;;;5010874;28;20029;-68
2023/05/16 08:01:55;;;;;;;17.58;11.45;;;;;;;;;;5009437;28;20478;-67
2023/05/16 08:04:20;;;;;;;17.13;10.52;;;;;;;;;;5010987;28;20081;-69
2023/05/16 08:06:45;;;;;;;18.45;10.82;;;;;;;;;;5010405;28;20010;-68
2023/05/16 08:09:10;;;;;;;18.40;10.30;;;;;;;;;;5010739;28;20152;-69
2023/05/16 08:11:36;;;;;;;18.25;10.68;;;;;;;;;;5006682;28;20414;-64
2023/05/16 08:14:01;;;;;;;18.33;10.67;;;;;;;;;;5003582;28;20501;-68
2023/05/16 08:16:27;;;;;;;18.17;10.93;;;;;;;;;;5006736;28;20045;-69
2023/05/16 08:18:52;;;;;;;15.82;9.68;;;;;;;;;;5010610;28;20026;-67
2023/05/16 08:21:17;;;;;;;16.20;9.67;;;;;;;;;;5009984;28;20022;-70
2023/05/16 08:23:42;;;;;;;19.37;9.60;;;;;;;;;;5008726;28;20029;-69
2023/05/16 08:26:07;;;;;;;14.23;9.13;;;;;;;;;;4998625;28;20088;-69
2023/05/16 08:28:32;;;;;;;15.53;9.27;;;;;;;;;;5004178;28;20033;-69
2023/05/16 08:30:58;;;;;;;14.30;9.23;;;;;;;;;;5009297;28;20022;-70
2023/05/16 08:33:23;;;;;;;14.30;8.40;;;;;;;;;;5009334;28;20040;-69
2023/05/16 08:35:51;;;;;;;16.90;9.70;;;;;;;;;;5008071;28;20093;-68
2023/05/16 08:38:16;;;;;;;15.05;9.77;;;;;;;;;;5009326;28;20906;-67
2023/05/16 08:40:42;;;;;;;12.98;8.57;;;;;;;;;;5009098;28;20097;-68
2023/05/16 08:43:07;;;;;;;14.48;8.65;;;;;;;;;;5010356;28;20211;-67
2023/05/16 08:45:32;;;;;;;16.97;9.43;;;;;;;;;;5009319;28;20080;-68
2023/05/16 08:47:59;;;;;;;15.13;8.85;;;;;;;;;;5009429;28;20018;-69
2023/05/16 08:50:25;;;;;;;14.15;8.68;;;;;;;;;;5011868;28;20100;-68
2023/05/16 08:52:51;;;;;;;15.85;9.43;;;;;;;;;;5012775;28;20484;-69
2023/05/16 08:55:18;;;;;;;13.27;8.63;;;;;;;;;;5012252;28;20014;-70
2023/05/16 08:57:43;;;;;;;13.52;8.27;;;;;;;;;;5013205;28;20056;-70
2023/05/16 09:00:12;;;;;;;16.52;8.57;;;;;;;;;;5013979;28;20477;-66
2023/05/16 09:02:40;;;;;;;15.15;8.38;;;;;;;;;;5014864;28;20031;-68
2023/05/16 09:05:07;;;;;;;14.98;8.38;;;;;;;;;;5018393;28;20072;-70
2023/05/16 09:07:32;;;;;;;12.95;7.90;;;;;;;;;;5017607;28;20528;-69
2023/05/16 09:09:57;;;;;;;13.47;7.90;;;;;;;;;;5014858;28;20105;-69
2023/05/16 09:12:23;;;;;;;14.77;7.75;;;;;;;;;;5013012;28;20030;-69
2023/05/16 09:14:48;;;;;;;10.88;6.97;;;;;;;;;;5014320;28;20098;-70
2023/05/16 09:17:14;;;;;;;12.37;6.63;;;;;;;;;;5013034;28;20014;-69
2023/05/16 09:19:40;;;;;;;13.25;7.38;;;;;;;;;;5009638;28;22620;-70
2023/05/16 09:22:08;;;;;;;13.93;8.45;;;;;;;;;;5009777;28;20371;-69
2023/05/16 09:24:36;;;;;;;12.07;7.72;;;;;;;;;;5012543;28;20030;-70
2023/05/16 09:27:06;;;;;;;11.60;7.60;;;;;;;;;;5011547;28;20056;-69
2023/05/16 09:29:32;;;;;;;13.85;7.70;;;;;;;;;;5012091;28;20500;-70
2023/05/16 09:32:03;;;;;;;13.55;8.05;;;;;;;;;;5012005;28;20535;-69
2023/05/16 09:34:28;;;;;;;15.05;7.97;;;;;;;;;;5011558;28;20049;-70
2023/05/16 09:36:54;;;;;;;10.90;7.07;;;;;;;;;;5012324;28;20477;-68
2023/05/16 09:39:19;;;;;;;12.23;7.95;;;;;;;;;;5013001;28;20024;-68
2023/05/16 09:41:44;;;;;;;11.73;7.13;;;;;;;;;;5011580;28;20014;-69
2023/05/16 09:44:09;;;;;;;11.23;6.78;;;;;;;;;;5012834;28;20089;-69
2023/05/16 09:46:37;;;;;;;13.90;7.47;;;;;;;;;;5012384;28;20496;-68
2023/05/16 09:49:02;;;;;;;12.38;7.95;;;;;;;;;;5012233;28;20033;-68
2023/05/16 09:51:27;;;;;;;15.53;7.10;;;;;;;;;;5011687;28;20026;-69
2023/05/16 09:53:53;;;;;;;13.13;6.93;;;;;;;;;;5013091;28;20022;-69
2023/05/16 09:56:18;;;;;;;13.80;7.68;;;;;;;;;;5014766;28;20041;-68
2023/05/16 09:58:43;;;;;;;11.65;6.68;;;;;;;;;;5013951;28;20025;-69
2023/05/16 10:01:09;;;;;;;12.75;6.82;;;;;;;;;;5011578;28;20112;-69
2023/05/16 10:03:35;;;;;;;13.80;7.47;;;;;;;;;;5012819;28;20025;-69
2023/05/16 10:06:01;;;;;;;9.73;6.30;;;;;;;;;;5011117;28;20409;-69
2023/05/16 10:08:26;;;;;;;10.65;6.72;;;;;;;;;;5011940;28;20109;-68
2023/05/16 10:10:53;;;;;;;13.87;7.03;;;;;;;;;;5010845;28;20026;-68
2023/05/16 10:13:20;;;;;;;13.90;7.13;;;;;;;;;;5024044;28;20113;-66
2023/05/16 10:15:46;;;;;;;10.18;6.47;;;;;;;;;;4995389;28;20108;-69
2023/05/16 10:18:13;;;;;;;12.50;6.47;;;;;;;;;;5011793;28;20034;-69
2023/05/16 10:20:40;;;;;;;13.50;7.47;;;;;;;;;;5005032;28;20636;-68
2023/05/16 10:23:05;;;;;;;10.00;6.00;;;;;;;;;;5009000;28;20389;-69
2023/05/16 10:25:32;;;;;;;11.70;6.78;;;;;;;;;;5008138;28;20045;-68
2023/05/16 10:27:58;;;;;;;12.35;6.60;;;;;;;;;;4999216;28;22732;-68
2023/05/16 10:30:23;;;;;;;10.77;6.50;;;;;;;;;;5007279;28;20058;-71
2023/05/16 10:32:48;;;;;;;12.48;5.78;;;;;;;;;;5006766;28;20018;-68
2023/05/16 10:35:14;;;;;;;13.52;6.40;;;;;;;;;;5007549;28;20068;-68
2023/05/16 10:37:40;;;;;;;12.50;6.38;;;;;;;;;;5005760;28;20362;-66
2023/05/16 10:40:05;;;;;;;9.95;6.47;;;;;;;;;;5007363;28;20083;-68
2023/05/16 10:42:31;;;;;;;11.20;6.43;;;;;;;;;;5007561;28;20026;-66
2023/05/16 10:45:07;;;;;;;13.20;7.10;;;;;;;;;;5007997;28;20029;-69
2023/05/16 10:47:32;;;;;;;9.73;6.65;;;;;;;;;;5001578;28;20026;-67
2023/05/16 10:49:58;;;;;;;11.17;6.43;;;;;;;;;;5005503;28;20076;-68
2023/05/16 10:52:31;;;;;;;10.45;5.97;;;;;;;;;;5001834;28;20034;-68
2023/05/16 10:55:00;;;;;;;11.68;6.28;;;;;;;;;;4999782;28;20021;-69
2023/05/16 10:57:26;;;;;;;11.30;6.18;;;;;;;;;;4998595;28;20058;-66
2023/05/16 10:59:51;;;;;;;9.97;6.17;;;;;;;;;;5000827;28;20045;-66
2023/05/16 11:02:24;;;;;;;13.77;6.28;;;;;;;;;;5004000;28;20033;-68
2023/05/16 11:04:50;;;;;;;11.50;6.00;;;;;;;;;;5006046;28;20030;-68
2023/05/16 11:07:16;;;;;;;8.63;5.53;;;;;;;;;;5006981;28;20034;-68
2023/05/16 11:09:45;;;;;;;11.23;5.85;;;;;;;;;;5000990;28;20034;-68
2023/05/16 11:12:11;;;;;;;8.63;5.20;;;;;;;;;;5008110;28;20088;-68
2023/05/16 11:14:37;;;;;;;11.32;5.13;;;;;;;;;;5005541;28;20034;-69
2023/05/16 11:17:03;;;;;;;11.70;5.68;;;;;;;;;;5008381;28;20029;-68
2023/05/16 11:19:30;;;;;;;10.60;4.57;;;;;;;;;;5008362;28;22557;-66
2023/05/16 11:22:04;;;;;;;7.45;4.18;;;;;;;;;;5002477;28;20045;-69
2023/05/16 11:24:30;;;;;;;10.70;4.93;;;;;;;;;;5006389;28;20033;-68
2023/05/16 11:26:55;;;;;;;9.63;4.47;;;;;;;;;;5011336;28;20014;-69
2023/05/16 11:29:21;;;;;;;8.60;4.95;;;;;;;;;;5011863;28;20112;-69
2023/05/16 11:31:46;;;;;;;7.63;4.63;;;;;;;;;;5009834;28;20156;-68
2023/05/16 11:34:12;;;;;;;7.60;4.20;;;;;;;;;;5005010;28;20057;-68
2023/05/16 11:36:38;;;;;;;8.07;4.00;;;;;;;;;;5007560;28;20026;-68
2023/05/16 11:39:08;;;;;;;9.45;4.55;;;;;;;;;;5007911;28;20088;-66
2023/05/16 11:41:33;;;;;;;6.70;3.90;;;;;;;;;;5010567;28;20033;-69
2023/05/16 11:43:59;;;;;;;9.20;3.83;;;;;;;;;;5008196;28;20030;-67
2023/05/16 11:46:24;;;;;;;8.98;4.32;;;;;;;;;;5010920;28;20017;-67
2023/05/16 11:48:49;;;;;;;12.35;4.10;;;;;;;;;;5010921;28;20080;-69
2023/05/16 11:51:17;;;;;;;8.05;4.20;;;;;;;;;;5010337;28;20474;-68
2023/05/16 11:53:43;;;;;;;8.85;3.90;;;;;;;;;;5010696;28;20034;-68
2023/05/16 11:56:08;;;;;;;7.38;3.97;;;;;;;;;;5010705;28;20021;-68
2023/05/16 11:58:34;;;;;;;7.10;3.70;;;;;;;;;;5009679;28;20038;-68
2023/05/16 12:01:04;;;;;;;7.53;4.55;;;;;;;;;;5009065;28;20036;-69
2023/05/16 12:03:32;;;;;;;7.90;4.22;;;;;;;;;;5007427;28;20053;-68
2023/05/16 12:05:57;;;;;;;7.15;3.90;;;;;;;;;;5009957;28;20053;-69
2023/05/16 12:08:24;;;;;;;8.48;3.55;;;;;;;;;;5009465;28;20065;-69
2023/05/16 12:10:50;;;;;;;8.23;4.10;;;;;;;;;;5008611;28;20092;-69
2023/05/16 12:13:15;;;;;;;8.68;3.80;;;;;;;;;;5010705;28;20026;-68
2023/05/16 12:15:41;;;;;;;6.95;3.92;;;;;;;;;;5009147;28;20374;-68
2023/05/16 12:18:07;;;;;;;8.10;4.10;;;;;;;;;;5010390;28;20022;-69
2023/05/16 12:20:32;;;;;;;7.53;4.13;;;;;;;;;;5010367;28;20359;-69
2023/05/16 12:22:57;;;;;;;7.23;3.47;;;;;;;;;;5009585;28;20014;-68
2023/05/16 12:25:26;;;;;;;8.15;4.30;;;;;;;;;;5014247;28;20033;-68
2023/05/16 12:27:52;;;;;;;7.68;3.97;;;;;;;;;;5014661;28;20093;-69
2023/05/16 12:30:17;;;;;;;6.70;3.75;;;;;;;;;;5014555;28;20018;-68
2023/05/16 12:32:42;;;;;;;7.43;4.28;;;;;;;;;;5013780;28;20084;-68
2023/05/16 12:35:09;;;;;;;8.73;3.77;;;;;;;;;;5014338;28;20422;-69
2023/05/16 12:37:35;;;;;;;7.00;3.47;;;;;;;;;;5013289;28;20405;-69
2023/05/16 12:40:00;;;;;;;10.00;3.70;;;;;;;;;;5006647;28;20030;-68
2023/05/16 12:42:26;;;;;;;8.23;3.90;;;;;;;;;;4994334;28;20421;-69
2023/05/16 12:44:54;;;;;;;6.15;3.78;;;;;;;;;;4994815;28;20014;-69
2023/05/16 12:47:20;;;;;;;6.85;3.58;;;;;;;;;;4994295;28;20036;-68
2023/05/16 12:49:46;;;;;;;9.10;4.18;;;;;;;;;;4998068;28;20406;-68
2023/05/16 12:52:17;;;;;;;5.95;3.75;;;;;;;;;;5003856;28;20014;-68
2023/05/16 12:54:43;;;;;;;8.32;4.22;;;;;;;;;;5014223;28;20018;-68
2023/05/16 12:57:09;;;;;;;6.15;3.35;;;;;;;;;;5014193;28;20021;-69
2023/05/16 12:59:34;;;;;;;6.07;3.45;;;;;;;;;;5014233;28;20022;-68
2023/05/16 13:01:59;;;;;;;8.37;3.37;;;;;;;;;;5012238;28;20052;-68
2023/05/16 13:04:24;;;;;;;6.75;3.70;;;;;;;;;;5014205;28;20048;-69
2023/05/16 13:06:50;;;;;;;6.03;3.15;;;;;;;;;;4994488;28;20041;-69
2023/05/16 13:09:15;;;;;;;6.93;3.50;;;;;;;;;;4994845;28;20042;-68
2023/05/16 13:11:41;;;;;;;6.43;3.10;;;;;;;;;;4993691;28;20062;-69
2023/05/16 13:14:06;;;;;;;6.93;3.20;;;;;;;;;;4996433;28;20022;-69
2023/05/16 13:16:31;;;;;;;7.15;3.17;;;;;;;;;;5013471;28;20400;-70
2023/05/16 13:18:58;;;;;;;6.97;3.50;;;;;;;;;;5013461;28;20033;-69
2023/05/16 13:21:23;;;;;;;6.18;3.22;;;;;;;;;;5013169;28;20096;-69
2023/05/16 13:23:48;;;;;;;7.53;3.87;;;;;;;;;;5013792;28;20470;-69
2023/05/16 13:26:13;;;;;;;6.33;3.33;;;;;;;;;;5013245;28;20026;-69
2023/05/16 13:28:38;;;;;;;5.97;3.00;;;;;;;;;;5012349;28;20026;-69
2023/05/16 13:31:03;;;;;;;8.13;3.10;;;;;;;;;;5012057;28;20006;-70
2023/05/16 13:33:28;;;;;;;6.70;3.30;;;;;;;;;;5012955;28;20057;-68
2023/05/16 13:35:54;;;;;;;7.80;3.40;;;;;;;;;;5012494;28;20021;-70
2023/05/16 13:38:19;;;;;;;6.25;3.13;;;;;;;;;;5013239;28;20018;-69
2023/05/16 13:40:44;;;;;;;6.65;3.47;;;;;;;;;;5013103;28;20026;-69
2023/05/16 13:43:13;;;;;;;7.55;3.17;;;;;;;;;;5013867;28;20034;-69
2023/05/16 13:45:38;;;;;;;7.45;3.13;;;;;;;;;;5008444;28;20032;-68
2023/05/16 13:48:03;;;;;;;6.10;2.67;;;;;;;;;;5008635;28;20026;-70
2023/05/16 13:50:28;;;;;;;7.38;2.80;;;;;;;;;;5012704;28;20025;-70
2023/05/16 13:52:54;;;;;;;6.37;2.60;;;;;;;;;;5013334;28;20469;-69
2023/05/16 13:55:19;;;;;;;6.13;2.90;;;;;;;;;;5012787;28;20105;-70
2023/05/16 13:57:44;;;;;;;6.33;2.70;;;;;;;;;;5012770;28;20029;-69
2023/05/16 14:00:13;;;;;;;6.63;2.75;;;;;;;;;;5013191;28;20018;-69
2023/05/16 14:02:41;;;;;;;6.20;2.65;;;;;;;;;;5012606;28;20129;-69
2023/05/16 14:05:06;;;;;;;6.68;2.78;;;;;;;;;;5011995;28;20072;-67
2023/05/16 14:07:32;;;;;;;8.98;2.90;;;;;;;;;;5012490;28;20026;-69
2023/05/16 14:09:57;;;;;;;6.07;2.53;;;;;;;;;;5012771;28;20108;-69
2023/05/16 14:12:22;;;;;;;5.55;2.83;;;;;;;;;;5012091;28;20100;-69
2023/05/16 14:14:47;;;;;;;6.57;2.83;;;;;;;;;;5012564;28;20046;-69
2023/05/16 14:17:12;;;;;;;8.45;2.88;;;;;;;;;;5012788;28;20080;-69
2023/05/16 14:19:37;;;;;;;6.30;2.80;;;;;;;;;;5012098;28;20022;-69
2023/05/16 14:22:03;;;;;;;6.05;2.55;;;;;;;;;;5012546;28;20102;-67